createdAt,value
2023-02-17T00:03:40.895Z,61.45
2023-02-17T00:09:43.316Z,56.20
2023-02-17T00:15:48.640Z,62.05
2023-02-17T00:21:53.073Z,51.78
2023-02-17T00:27:55.294Z,58.72
2023-02-17T00:33:57.740Z,57.97
2023-02-17T00:40:01.737Z,53.08
2023-02-17T00:46:04.920Z,56.90
2023-02-17T00:52:08.210Z,52.85
2023-02-17T00:58:12.819Z,53.92
2023-02-17T01:04:15.160Z,53.78
2023-02-17T01:10:17.665Z,53.92
2023-02-17T01:16:28.223Z,56.20
2023-02-17T01:22:30.593Z,64.75
2023-02-17T01:28:34.358Z,57.35
2023-02-17T01:34:42.356Z,61.63
2023-02-17T01:40:51.222Z,57.50
2023-02-17T01:46:56.820Z,61.63
2023-02-17T01:53:01.549Z,58.78
2023-02-17T01:59:07.842Z,59.95
2023-02-17T02:05:11.446Z,58.08
2023-02-17T02:11:13.590Z,59.97
2023-02-17T02:17:29.349Z,58.03
2023-02-17T02:24:08.058Z,56.75
2023-02-17T02:30:23.756Z,59.83
2023-02-17T02:36:31.132Z,54.83
2023-02-17T02:42:35.294Z,55.03
2023-02-17T02:48:38.370Z,58.97
2023-02-17T02:54:47.305Z,53.75
2023-02-17T03:01:15.875Z,64.95
2023-02-17T03:07:59.717Z,53.00
2023-02-17T03:14:03.704Z,63.20
2023-02-17T03:20:07.050Z,55.25
2023-02-17T03:26:09.304Z,57.63
2023-02-17T03:32:11.737Z,58.28
2023-02-17T03:38:13.827Z,54.13
2023-02-17T03:44:15.926Z,60.08
2023-02-17T03:50:18.485Z,56.55
2023-02-17T03:56:21.603Z,56.88
2023-02-17T04:02:24.200Z,53.80
2023-02-17T04:08:27.298Z,56.00
2023-02-17T04:14:29.384Z,57.03
2023-02-17T04:20:31.527Z,50.63
2023-02-17T04:26:34.335Z,50.05
2023-02-17T04:32:37.290Z,51.35
2023-02-17T04:38:40.384Z,52.25
2023-02-17T04:44:44.988Z,58.90
2023-02-17T04:50:49.983Z,46.33
2023-02-17T04:56:51.885Z,52.85
2023-02-17T05:02:53.686Z,48.85
2023-02-17T05:08:55.503Z,50.90
2023-02-17T05:14:57.750Z,49.63
2023-02-17T05:20:59.790Z,50.83
2023-02-17T05:27:02.629Z,49.70
2023-02-17T05:33:04.817Z,42.22
2023-02-17T05:39:07.076Z,42.13
2023-02-17T05:45:09.520Z,41.03
2023-02-17T05:51:13.882Z,39.40
2023-02-17T05:57:15.882Z,41.33
2023-02-17T06:03:17.851Z,41.17
2023-02-17T06:09:20.155Z,39.83
2023-02-17T06:15:21.983Z,42.42
2023-02-17T06:21:23.760Z,38.85
2023-02-17T06:27:25.624Z,37.22
2023-02-17T06:33:27.458Z,43.78
2023-02-17T06:39:29.221Z,35.20
2023-02-17T06:45:31.028Z,37.95
2023-02-17T06:51:32.926Z,35.33
2023-02-17T06:57:34.671Z,35.88
2023-02-17T07:03:36.670Z,32.30
2023-02-17T07:09:39.292Z,37.28
2023-02-17T07:15:41.025Z,32.47
2023-02-17T07:21:43.744Z,32.20
2023-02-17T07:27:45.506Z,30.73
2023-02-17T07:33:48.632Z,28.92
2023-02-17T07:39:52.315Z,33.30
2023-02-17T07:45:54.945Z,30.05
2023-02-17T07:51:57.052Z,27.98
2023-02-17T07:57:59.937Z,26.55
2023-02-17T08:04:01.803Z,28.65
2023-02-17T08:10:22.111Z,28.58
2023-02-17T08:16:26.792Z,26.33
2023-02-17T08:22:28.645Z,25.20
2023-02-17T08:28:30.380Z,22.40
2023-02-17T08:34:34.824Z,22.23
2023-02-17T08:40:36.592Z,20.45
2023-02-17T08:46:39.035Z,20.02
2023-02-17T08:52:40.823Z,18.98
2023-02-17T08:58:42.567Z,18.90
2023-02-17T09:04:44.670Z,18.05
2023-02-17T09:10:46.515Z,19.73
2023-02-17T09:16:48.343Z,18.67
2023-02-17T09:22:51.495Z,17.50
2023-02-17T09:28:53.809Z,18.55
2023-02-17T09:34:55.572Z,16.40
2023-02-17T09:41:26.093Z,15.32
2023-02-17T09:47:35.242Z,15.95
2023-02-17T09:53:46.672Z,15.30
2023-02-17T10:00:04.049Z,13.98
2023-02-17T10:06:24.298Z,13.40
2023-02-17T10:12:33.564Z,12.52
2023-02-17T10:18:41.457Z,11.48
2023-02-17T10:31:05.464Z,11.55
2023-02-17T10:37:24.623Z,10.82
2023-02-17T10:43:32.390Z,9.55
2023-02-17T10:49:39.758Z,10.07
2023-02-17T10:55:53.600Z,8.43
2023-02-17T11:02:35.287Z,8.05
2023-02-17T11:08:45.769Z,6.72
2023-02-17T11:14:50.221Z,8.05
2023-02-17T11:21:07.354Z,10.90
2023-02-17T11:27:11.588Z,5.60
2023-02-17T11:33:15.083Z,9.35
2023-02-17T11:39:21.620Z,5.25
2023-02-17T11:45:24.283Z,8.52
2023-02-17T11:51:41.557Z,4.75
2023-02-17T11:57:46.345Z,4.10
2023-02-17T12:04:05.937Z,4.57
2023-02-17T12:10:28.663Z,5.03
2023-02-17T12:17:00.892Z,4.40
2023-02-17T12:23:22.988Z,5.18
2023-02-17T12:29:30.228Z,5.10
2023-02-17T12:35:38.197Z,7.17
2023-02-17T12:42:07.149Z,4.97
2023-02-17T12:48:21.595Z,4.95
2023-02-17T12:54:39.411Z,5.50
2023-02-17T13:00:48.447Z,7.55
2023-02-17T13:07:01.749Z,6.93
2023-02-17T13:13:26.632Z,7.82
2023-02-17T13:19:35.428Z,6.75
2023-02-17T13:25:38.099Z,6.90
2023-02-17T13:32:08.149Z,5.93
2023-02-17T13:38:10.657Z,5.68
2023-02-17T13:44:20.481Z,6.18
2023-02-17T13:50:57.235Z,7.72
2023-02-17T13:56:58.984Z,5.13
2023-02-17T14:03:21.289Z,5.47
2023-02-17T14:09:30.643Z,5.80
2023-02-17T14:15:32.542Z,6.00
2023-02-17T14:21:36.136Z,11.50
2023-02-17T14:27:45.980Z,5.03
2023-02-17T14:33:59.822Z,7.45
2023-02-17T14:40:02.200Z,7.35
2023-02-17T14:46:04.385Z,9.63
2023-02-17T14:52:32.496Z,8.82
2023-02-17T14:58:35.059Z,9.68
2023-02-17T15:04:38.300Z,8.65
2023-02-17T15:10:41.011Z,8.43
2023-02-17T15:16:43.563Z,8.65
2023-02-17T15:22:46.070Z,8.63
2023-02-17T15:28:48.004Z,9.95
2023-02-17T15:34:49.753Z,8.77
2023-02-17T15:40:51.763Z,10.48
2023-02-17T15:46:55.560Z,9.48
2023-02-17T15:52:57.664Z,12.55
2023-02-17T15:59:04.570Z,12.13
2023-02-17T16:05:06.597Z,13.65
2023-02-17T16:11:15.030Z,10.30
2023-02-17T16:17:16.987Z,11.18
2023-02-17T16:23:19.039Z,10.25
2023-02-17T16:29:21.924Z,8.52
2023-02-17T16:35:26.272Z,9.25
2023-02-17T16:41:28.039Z,10.52
2023-02-17T16:47:30.479Z,6.82
2023-02-17T16:53:32.214Z,7.40
2023-02-17T16:59:33.921Z,6.07
2023-02-17T17:05:36.602Z,9.90
2023-02-17T17:11:38.380Z,8.80
2023-02-17T17:17:44.684Z,6.55
2023-02-17T17:23:46.749Z,6.93
2023-02-17T17:29:48.574Z,6.18
2023-02-17T17:35:50.383Z,8.65
2023-02-17T17:41:52.397Z,10.45
2023-02-17T17:47:54.300Z,8.43
2023-02-17T17:53:56.677Z,9.63
2023-02-17T17:59:58.410Z,12.15
2023-02-17T18:06:00.921Z,9.18
2023-02-17T18:12:11.160Z,10.45
2023-02-17T18:18:13.532Z,10.10
2023-02-17T18:24:15.461Z,11.32
2023-02-17T18:30:21.731Z,12.43
2023-02-17T18:36:26.471Z,11.73
2023-02-17T18:42:28.222Z,12.38
2023-02-17T18:48:30.135Z,11.32
2023-02-17T18:54:31.988Z,11.50
2023-02-17T19:00:33.868Z,13.60
2023-02-17T19:06:35.869Z,12.88
2023-02-17T19:12:37.974Z,16.48
2023-02-17T19:18:41.434Z,10.30
2023-02-17T19:24:43.327Z,13.85
2023-02-17T19:30:45.112Z,11.18
2023-02-17T19:36:46.914Z,17.30
2023-02-17T19:42:48.665Z,14.40
2023-02-17T19:48:50.386Z,19.45
2023-02-17T19:54:52.142Z,16.38
2023-02-17T20:00:53.909Z,15.82
2023-02-17T20:06:55.771Z,18.60
2023-02-17T20:12:57.621Z,17.95
2023-02-17T20:19:01.601Z,17.58
2023-02-17T20:25:03.476Z,19.38
2023-02-17T20:31:06.623Z,21.98
2023-02-17T20:37:09.553Z,26.55
2023-02-17T20:43:15.296Z,13.35
2023-02-17T20:49:17.058Z,15.77
2023-02-17T20:55:19.702Z,17.17
2023-02-17T21:01:21.488Z,11.70
2023-02-17T21:07:23.337Z,15.95
2023-02-17T21:13:25.102Z,14.30
2023-02-17T21:19:29.356Z,8.93
2023-02-17T21:25:31.140Z,9.63
2023-02-17T21:31:33.388Z,14.15
2023-02-17T21:37:35.274Z,12.35
2023-02-17T21:43:57.286Z,15.10
2023-02-17T21:49:59.499Z,10.75
2023-02-17T21:56:01.516Z,13.35
2023-02-17T22:02:03.302Z,10.90
2023-02-17T22:08:05.094Z,9.88
2023-02-17T22:14:11.092Z,20.25
2023-02-17T22:20:15.095Z,14.00
2023-02-17T22:26:22.384Z,15.52
2023-02-17T22:32:24.387Z,12.27
2023-02-17T22:38:26.380Z,14.00
2023-02-17T22:44:28.211Z,19.13
2023-02-17T22:50:30.001Z,14.80
2023-02-17T22:56:32.529Z,13.98
2023-02-17T23:02:35.429Z,14.18
2023-02-17T23:08:37.753Z,17.70
2023-02-17T23:14:40.188Z,7.25
2023-02-17T23:20:44.439Z,11.93
2023-02-17T23:26:47.521Z,13.40
2023-02-17T23:32:49.581Z,13.48
2023-02-17T23:38:51.423Z,11.70
2023-02-17T23:44:53.777Z,12.73
2023-02-17T23:51:00.774Z,14.55
2023-02-17T23:57:03.559Z,10.23
